Time;durP1;ratioP1;P1;durP2;ratioP2;P2;SDS_P1;SDS_P2;PMS_P1;PMS_P2;Temp;Humidity;BMP_temperature;BMP_pressure;BME280_temperature;BME280_humidity;BME280_pressure;Samples;Min_cycle;Max_cycle;Signal;HPM_P1;HPM_P2
2021/04/03 00:01:00;;;;;;;16.95;13.40;;;7.30;99.90;;;;;;5092931;28;20475;-82
2021/04/03 00:03:28;;;;;;;16.60;12.80;;;7.30;99.90;;;;;;5093206;28;20020;-80
2021/04/03 00:05:53;;;;;;;17.60;12.77;;;7.30;99.90;;;;;;5093535;28;20059;-81
2021/04/03 00:08:23;;;;;;;16.48;12.18;;;7.20;99.90;;;;;;5092830;28;20055;-82
2021/04/03 00:10:56;;;;;;;18.73;13.00;;;7.20;99.90;;;;;;5092841;28;20035;-80
2021/04/03 00:13:25;;;;;;;17.58;12.75;;;7.20;99.90;;;;;;5092724;28;20050;-80
2021/04/03 00:15:51;;;;;;;16.50;12.50;;;7.20;99.90;;;;;;5092617;28;20552;-82
2021/04/03 00:18:17;;;;;;;16.08;12.32;;;7.20;99.90;;;;;;5092899;28;20031;-81
2021/04/03 00:20:45;;;;;;;15.80;12.50;;;7.10;99.90;;;;;;5093941;28;20098;-81
2021/04/03 00:23:11;;;;;;;15.52;12.55;;;7.30;99.90;;;;;;5093825;28;20040;-81
2021/04/03 00:25:37;;;;;;;16.95;12.13;;;7.10;99.90;;;;;;5093538;28;20493;-80
2021/04/03 00:28:03;;;;;;;18.10;12.82;;;7.10;99.90;;;;;;5093899;28;20024;-80
2021/04/03 00:30:29;;;;;;;15.82;12.57;;;7.10;99.90;;;;;;5092240;28;20107;-80
2021/04/03 00:32:57;;;;;;;17.52;12.68;;;7.10;99.90;;;;;;5092021;28;20032;-80
2021/04/03 00:35:27;;;;;;;14.73;11.55;;;7.10;99.90;;;;;;5092315;28;20023;-79
2021/04/03 00:37:55;;;;;;;15.98;12.48;;;7.10;99.90;;;;;;5091923;28;20082;-82
2021/04/03 00:40:44;;;;;;;14.13;10.77;;;7.10;99.90;;;;;;5088871;28;20069;-83
2021/04/03 00:43:15;;;;;;;18.02;11.13;;;7.10;99.90;;;;;;5093482;28;20020;-81
2021/04/03 00:45:42;;;;;;;14.35;11.57;;;7.10;99.90;;;;;;5092376;28;20024;-81
2021/04/03 00:48:08;;;;;;;15.77;12.20;;;7.20;99.90;;;;;;5092056;28;20024;-85
2021/04/03 00:50:36;;;;;;;14.73;11.52;;;7.10;99.90;;;;;;5091877;28;20027;-81
2021/04/03 00:53:04;;;;;;;15.00;11.77;;;7.10;99.90;;;;;;5091744;28;20054;-81
2021/04/03 00:55:30;;;;;;;14.70;11.10;;;7.10;99.90;;;;;;5091861;28;20020;-81
2021/04/03 00:57:56;;;;;;;15.00;11.13;;;7.20;99.90;;;;;;5091651;28;20016;-80
2021/04/03 01:00:21;;;;;;;14.73;12.02;;;7.10;99.90;;;;;;5091978;28;20024;-81
2021/04/03 01:02:48;;;;;;;16.40;11.88;;;7.10;99.90;;;;;;5091991;28;20497;-81
2021/04/03 01:05:17;;;;;;;15.32;11.55;;;7.20;99.90;;;;;;5091549;28;20028;-81
2021/04/03 01:07:43;;;;;;;14.90;11.20;;;7.20;99.90;;;;;;5091781;28;20382;-81
2021/04/03 01:10:14;;;;;;;13.48;11.38;;;7.20;99.90;;;;;;5091854;28;20032;-80
2021/04/03 01:12:58;;;;;;;14.10;11.55;;;7.20;99.90;;;;;;5091708;28;20062;-80
2021/04/03 01:15:29;;;;;;;20.60;13.15;;;7.10;99.90;;;;;;5090930;28;20026;-81
2021/04/03 01:18:03;;;;;;;17.25;13.68;;;7.00;99.90;;;;;;5091191;28;20539;-81
2021/04/03 01:20:47;;;;;;;18.70;14.20;;;7.00;99.90;;;;;;5091310;28;20031;-80
2021/04/03 01:23:50;;;;;;;16.08;12.65;;;7.00;99.90;;;;;;5091687;28;20056;-80
2021/04/03 01:26:40;;;;;;;16.60;12.90;;;6.90;99.90;;;;;;5091927;28;20391;-83
2021/04/03 01:29:12;;;;;;;15.52;12.15;;;7.00;99.90;;;;;;5092229;28;20143;-79
2021/04/03 01:31:38;;;;;;;18.23;12.52;;;7.00;99.90;;;;;;5095898;28;20024;-79
2021/04/03 01:34:10;;;;;;;15.30;12.75;;;7.00;99.90;;;;;;5095533;28;20035;-81
2021/04/03 01:36:37;;;;;;;17.27;12.60;;;6.90;99.90;;;;;;5096757;28;20035;-81
2021/04/03 01:39:22;;;;;;;17.20;12.75;;;6.90;99.90;;;;;;5097205;28;20044;-80
2021/04/03 01:41:50;;;;;;;16.67;11.98;;;6.90;99.90;;;;;;5095620;28;20020;-81
2021/04/03 01:44:20;;;;;;;13.23;11.15;;;6.80;99.90;;;;;;5095467;28;20057;-81
2021/04/03 01:46:49;;;;;;;12.85;10.90;;;7.00;99.90;;;;;;5097020;28;20374;-81
2021/04/03 01:49:16;;;;;;;13.50;11.23;;;7.00;99.90;;;;;;5095756;28;20059;-80
2021/04/03 01:51:47;;;;;;;13.55;10.88;;;7.00;99.90;;;;;;5095439;28;20059;-81
2021/04/03 01:54:14;;;;;;;15.27;12.02;;;7.00;99.90;;;;;;5096316;28;20114;-81
2021/04/03 01:56:42;;;;;;;16.02;11.88;;;7.00;99.90;;;;;;5095400;28;20475;-81
2021/04/03 01:59:09;;;;;;;16.08;12.75;;;7.00;99.90;;;;;;5096609;28;20024;-79
2021/04/03 02:01:41;;;;;;;16.58;12.10;;;7.00;99.90;;;;;;5096461;28;20016;-81
2021/04/03 02:04:07;;;;;;;14.48;12.07;;;7.10;99.90;;;;;;5095519;28;20397;-80
2021/04/03 02:06:34;;;;;;;14.43;11.55;;;7.10;99.90;;;;;;5095095;28;20024;-81
2021/04/03 02:09:01;;;;;;;13.68;10.80;;;7.10;99.90;;;;;;5095186;28;20123;-81
2021/04/03 02:11:28;;;;;;;12.93;10.88;;;7.10;99.90;;;;;;5095162;28;20077;-80
2021/04/03 02:13:55;;;;;;;16.80;12.52;;;7.10;99.90;;;;;;5095255;28;20036;-80
2021/04/03 02:16:23;;;;;;;14.60;11.27;;;7.20;99.90;;;;;;5095170;28;20027;-80
2021/04/03 02:18:50;;;;;;;17.42;12.18;;;7.20;99.90;;;;;;5094811;28;20093;-82
2021/04/03 02:21:17;;;;;;;17.05;11.30;;;7.20;99.90;;;;;;5094733;28;20017;-80
2021/04/03 02:23:43;;;;;;;15.65;11.68;;;7.20;99.90;;;;;;5095214;28;20032;-81
2021/04/03 02:26:09;;;;;;;13.25;11.52;;;7.20;99.90;;;;;;5094780;28;20107;-80
2021/04/03 02:28:36;;;;;;;15.88;11.68;;;7.20;99.90;;;;;;5095006;28;20051;-81
2021/04/03 02:31:02;;;;;;;15.48;12.02;;;7.30;99.90;;;;;;5094655;28;20024;-81
2021/04/03 02:33:27;;;;;;;17.90;12.20;;;7.20;99.90;;;;;;5094762;28;20039;-80
2021/04/03 02:35:53;;;;;;;14.73;11.30;;;7.20;99.90;;;;;;5094455;28;20072;-80
2021/04/03 02:38:19;;;;;;;14.15;12.05;;;7.30;99.90;;;;;;5094627;28;20371;-80
2021/04/03 02:40:45;;;;;;;14.32;11.43;;;7.30;99.90;;;;;;5094311;28;20415;-81
2021/04/03 02:43:19;;;;;;;15.55;12.60;;;7.20;99.90;;;;;;5095800;28;20048;-80
2021/04/03 02:46:04;;;;;;;16.48;13.23;;;7.20;99.90;;;;;;5094346;28;20016;-80
2021/04/03 02:48:36;;;;;;;15.23;12.20;;;7.20;99.90;;;;;;5095401;28;20479;-81
2021/04/03 02:51:03;;;;;;;13.95;11.57;;;7.20;99.90;;;;;;5094368;28;20035;-80
2021/04/03 02:53:31;;;;;;;15.50;11.30;;;7.30;99.90;;;;;;5094093;28;20054;-80
2021/04/03 02:56:00;;;;;;;13.38;11.30;;;7.10;99.90;;;;;;5094281;28;20024;-81
2021/04/03 02:58:31;;;;;;;15.82;11.57;;;7.10;99.90;;;;;;5095440;28;20479;-79
2021/04/03 03:00:58;;;;;;;14.50;11.50;;;7.30;99.90;;;;;;5095630;28;20067;-80
2021/04/03 03:03:24;;;;;;;17.08;11.13;;;7.30;99.90;;;;;;5094228;28;20048;-80
2021/04/03 03:05:56;;;;;;;14.02;10.30;;;7.40;99.90;;;;;;5093999;28;20050;-81
2021/04/03 03:08:22;;;;;;;15.77;11.65;;;7.50;99.90;;;;;;5093711;28;20375;-80
2021/04/03 03:10:50;;;;;;;12.38;10.15;;;7.40;99.90;;;;;;5093689;28;20027;-81
2021/04/03 03:13:17;;;;;;;12.65;10.30;;;7.40;99.90;;;;;;5093631;28;20031;-83
2021/04/03 03:15:43;;;;;;;11.73;9.57;;;7.40;99.90;;;;;;5094093;28;20024;-82
2021/04/03 03:18:10;;;;;;;12.23;9.65;;;7.40;99.90;;;;;;5094084;28;20111;-80
2021/04/03 03:20:36;;;;;;;12.55;9.25;;;7.50;99.90;;;;;;5093900;28;20439;-81
2021/04/03 03:23:02;;;;;;;13.27;10.07;;;7.50;99.90;;;;;;5095342;28;20039;-80
2021/04/03 03:25:28;;;;;;;11.55;9.57;;;7.50;99.90;;;;;;5093804;28;20172;-81
2021/04/03 03:27:55;;;;;;;11.63;8.90;;;7.50;99.90;;;;;;5093066;28;20428;-81
2021/04/03 03:30:24;;;;;;;11.38;9.55;;;7.40;99.60;;;;;;5093534;28;20016;-81
2021/04/03 03:32:49;;;;;;;11.45;9.25;;;7.40;99.70;;;;;;5093957;28;20032;-82
2021/04/03 03:35:16;;;;;;;12.63;9.02;;;7.30;99.90;;;;;;5093404;28;20164;-81
2021/04/03 03:37:44;;;;;;;9.68;8.60;;;7.30;99.90;;;;;;5093415;28;20020;-81
2021/04/03 03:40:12;;;;;;;11.27;9.25;;;7.30;99.80;;;;;;5093444;28;20028;-80
2021/04/03 03:42:39;;;;;;;12.23;9.38;;;7.30;99.90;;;;;;5093356;28;20030;-80
2021/04/03 03:45:06;;;;;;;9.85;8.73;;;7.20;99.90;;;;;;5093584;28;20467;-80
2021/04/03 03:47:32;;;;;;;12.18;9.65;;;7.20;99.90;;;;;;5093823;28;20062;-82
2021/04/03 03:49:57;;;;;;;10.13;8.13;;;7.20;98.20;;;;;;5093076;28;20028;-78
2021/04/03 03:52:23;;;;;;;10.98;8.98;;;7.20;98.20;;;;;;5093864;28;20458;-80
2021/04/03 03:54:49;;;;;;;10.90;8.45;;;7.20;97.40;;;;;;5092490;28;20054;-81
2021/04/03 03:57:15;;;;;;;10.48;9.38;;;7.20;97.60;;;;;;5092884;28;20024;-82
2021/04/03 03:59:40;;;;;;;9.63;8.27;;;7.00;98.00;;;;;;5093079;28;20464;-81
2021/04/03 04:02:06;;;;;;;10.63;9.02;;;7.00;98.30;;;;;;5093433;28;20028;-81
2021/04/03 04:04:32;;;;;;;11.35;8.70;;;6.90;97.50;;;;;;5095988;28;20158;-80
2021/04/03 04:06:57;;;;;;;8.90;8.00;;;7.00;99.00;;;;;;5092614;28;20024;-78
2021/04/03 04:09:24;;;;;;;8.57;6.95;;;9.30;98.60;;;;;;5097337;28;20059;-79
2021/04/03 04:11:50;;;;;;;8.27;6.70;;;11.10;95.30;;;;;;5092239;28;20020;-78
2021/04/03 04:14:16;;;;;;;9.18;7.47;;;11.40;91.00;;;;;;5092394;28;20032;-82
2021/04/03 04:16:43;;;;;;;8.65;7.10;;;11.20;92.00;;;;;;5092690;28;20162;-82
2021/04/03 04:19:09;;;;;;;9.23;7.63;;;10.30;91.90;;;;;;5093018;28;20028;-81
2021/04/03 04:21:35;;;;;;;11.68;8.80;;;9.30;94.20;;;;;;5093221;28;20020;-82
2021/04/03 04:24:00;;;;;;;9.95;8.25;;;8.40;95.00;;;;;;5092708;28;20559;-82
2021/04/03 04:26:26;;;;;;;9.05;7.90;;;7.90;92.90;;;;;;5092632;28;20024;-80
2021/04/03 04:28:51;;;;;;;9.43;7.70;;;7.60;91.20;;;;;;5092794;28;20028;-82
2021/04/03 04:31:17;;;;;;;10.60;8.32;;;7.50;90.80;;;;;;5092490;28;20052;-80
2021/04/03 04:33:43;;;;;;;15.98;12.10;;;7.30;90.50;;;;;;5092578;28;20427;-80
2021/04/03 04:36:09;;;;;;;14.60;10.52;;;7.20;89.40;;;;;;5092856;28;20459;-81
2021/04/03 04:38:34;;;;;;;11.82;10.50;;;7.10;92.40;;;;;;5093426;28;20100;-79
2021/04/03 04:41:00;;;;;;;14.38;10.40;;;7.00;95.20;;;;;;5092564;28;20110;-80
2021/04/03 04:43:26;;;;;;;23.85;14.10;;;6.90;95.10;;;;;;5092300;28;20085;-81
2021/04/03 04:45:52;;;;;;;36.55;19.90;;;6.70;91.60;;;;;;5092314;28;20032;-80
2021/04/03 04:48:18;;;;;;;47.22;25.38;;;6.80;91.70;;;;;;5093343;28;20028;-80
2021/04/03 04:50:44;;;;;;;141.85;63.72;;;6.80;92.70;;;;;;5092040;28;20032;-79
2021/04/03 04:53:09;;;;;;;111.32;49.83;;;6.80;91.70;;;;;;5091782;28;20123;-81
2021/04/03 04:55:35;;;;;;;42.33;22.20;;;6.80;91.70;;;;;;5092130;28;20031;-80
2021/04/03 04:58:01;;;;;;;22.55;12.80;;;6.90;93.10;;;;;;5093364;28;20038;-80
2021/04/03 05:00:27;;;;;;;36.30;19.67;;;6.80;93.20;;;;;;5092241;28;20157;-80
2021/04/03 05:02:53;;;;;;;34.22;19.80;;;6.80;93.30;;;;;;5091806;28;20028;-79
2021/04/03 05:05:18;;;;;;;44.50;21.45;;;6.80;95.20;;;;;;5090957;28;20224;-81
2021/04/03 05:07:44;;;;;;;29.85;16.20;;;6.80;93.00;;;;;;5092447;28;20032;-81
2021/04/03 05:10:11;;;;;;;46.63;25.75;;;7.00;91.90;;;;;;5093110;28;20023;-80
2021/04/03 05:12:37;;;;;;;20.58;12.95;;;7.00;93.60;;;;;;5092901;28;20117;-80
2021/04/03 05:15:03;;;;;;;21.90;14.10;;;7.00;95.50;;;;;;5091923;28;20063;-82
2021/04/03 05:17:29;;;;;;;16.85;11.50;;;6.90;96.20;;;;;;5091726;28;20016;-80
2021/04/03 05:19:55;;;;;;;12.50;9.32;;;6.80;97.00;;;;;;5091207;28;20047;-80
2021/04/03 05:22:21;;;;;;;13.43;9.50;;;6.80;97.30;;;;;;5091672;28;20016;-80
2021/04/03 05:24:47;;;;;;;14.65;10.60;;;6.80;98.10;;;;;;5091761;28;20050;-79
2021/04/03 05:27:13;;;;;;;18.20;11.40;;;6.70;97.90;;;;;;5093285;28;20122;-79
2021/04/03 05:29:38;;;;;;;17.63;11.52;;;6.70;96.90;;;;;;5093608;28;20433;-82
2021/04/03 05:32:05;;;;;;;24.92;14.30;;;6.80;92.00;;;;;;5092122;28;20050;-80
2021/04/03 05:34:31;;;;;;;701.03;312.25;;;6.80;93.30;;;;;;5093539;28;20036;-80
2021/04/03 05:36:56;;;;;;;140.20;58.80;;;7.00;89.40;;;;;;5091768;28;20118;-82
2021/04/03 05:39:22;;;;;;;112.95;53.80;;;7.00;92.40;;;;;;5091530;28;20077;-84
2021/04/03 05:41:47;;;;;;;143.15;61.88;;;8.70;91.50;;;;;;5092516;28;20416;-81
2021/04/03 05:44:14;;;;;;;51.45;27.20;;;8.30;83.30;;;;;;5092257;28;20452;-82
2021/04/03 05:46:43;;;;;;;77.13;38.63;;;8.20;84.50;;;;;;5092374;28;20102;-81
2021/04/03 05:49:10;;;;;;;19.77;11.35;;;8.00;80.10;;;;;;5092435;28;20047;-83
2021/04/03 05:51:37;;;;;;;18.48;11.05;;;7.80;83.70;;;;;;5092249;28;20039;-83
2021/04/03 05:54:04;;;;;;;43.00;20.63;;;7.70;84.10;;;;;;5093619;28;20034;-82
2021/04/03 05:56:30;;;;;;;11.80;8.40;;;7.60;83.40;;;;;;5092621;28;20020;-85
2021/04/03 05:58:56;;;;;;;51.30;27.05;;;7.60;80.60;;;;;;5092899;28;20116;-80
2021/04/03 06:01:23;;;;;;;80.35;45.25;;;8.00;98.50;;;;;;5092025;28;20027;-84
2021/04/03 06:03:48;;;;;;;21.55;12.15;;;8.40;76.10;;;;;;5091857;28;20486;-88
2021/04/03 06:06:15;;;;;;;17.60;12.50;;;8.20;76.30;;;;;;5092671;28;20024;-83
2021/04/03 06:08:41;;;;;;;17.80;10.23;;;7.90;75.70;;;;;;5092363;28;20028;-85
2021/04/03 06:11:18;;;;;;;23.05;10.75;;;7.80;78.70;;;;;;5092088;28;20030;-83
2021/04/03 06:13:56;;;;;;;13.40;7.70;;;7.80;76.40;;;;;;5092280;28;20032;-81
2021/04/03 06:16:29;;;;;;;9.80;7.05;;;7.70;76.90;;;;;;5093384;28;20016;-83
2021/04/03 06:19:18;;;;;;;9.40;6.68;;;7.70;79.50;;;;;;5095422;28;20024;-81
2021/04/03 06:22:01;;;;;;;7.07;5.38;;;7.70;79.20;;;;;;5096395;28;20028;-82
2021/04/03 06:24:37;;;;;;;10.88;8.00;;;7.70;78.00;;;;;;5096595;28;20032;-82
2021/04/03 06:27:12;;;;;;;11.63;6.70;;;7.80;81.40;;;;;;5094763;28;20024;-79
2021/04/03 06:29:40;;;;;;;396.50;208.48;;;7.90;79.60;;;;;;5095024;28;20020;-82
2021/04/03 06:32:21;;;;;;;44.80;24.67;;;8.00;79.40;;;;;;5094040;28;20027;-78
2021/04/03 06:34:53;;;;;;;20.92;11.43;;;8.10;77.60;;;;;;5095500;28;20367;-79
2021/04/03 06:37:26;;;;;;;21.25;13.88;;;8.20;78.70;;;;;;5095289;28;20069;-81
2021/04/03 06:39:53;;;;;;;94.43;44.55;;;8.30;75.90;;;;;;5093670;28;20028;-77
2021/04/03 06:42:37;;;;;;;24.17;15.40;;;8.30;75.40;;;;;;5093874;28;20119;-81
2021/04/03 06:45:19;;;;;;;32.90;19.33;;;8.40;75.60;;;;;;5095083;28;20394;-77
2021/04/03 06:47:50;;;;;;;20.55;10.98;;;8.50;75.50;;;;;;5094016;28;20062;-78
2021/04/03 06:50:17;;;;;;;20.15;11.32;;;8.60;75.00;;;;;;5094244;28;20412;-79
2021/04/03 06:52:44;;;;;;;23.45;13.30;;;8.60;72.10;;;;;;5093394;28;20070;-78
2021/04/03 06:55:12;;;;;;;12.75;6.30;;;8.60;75.00;;;;;;5093874;28;20028;-80
2021/04/03 06:57:40;;;;;;;5.75;3.30;;;8.80;73.10;;;;;;5094175;28;20020;-86
2021/04/03 07:00:06;;;;;;;9.30;5.95;;;8.80;61.40;;;;;;5096028;28;20035;-82
2021/04/03 07:02:40;;;;;;;7.05;3.45;;;8.90;57.80;;;;;;5094919;28;20024;-81
2021/04/03 07:05:08;;;;;;;14.40;8.52;;;8.90;56.70;;;;;;5094767;28;20024;-81
2021/04/03 07:07:35;;;;;;;8.30;5.40;;;8.90;62.80;;;;;;5094419;28;20020;-81
2021/04/03 07:10:01;;;;;;;9.73;5.47;;;8.80;65.00;;;;;;5094155;28;20085;-81
2021/04/03 07:12:29;;;;;;;8.55;6.40;;;8.90;66.10;;;;;;5094152;28;20073;-81
2021/04/03 07:14:57;;;;;;;7.55;5.28;;;8.90;67.40;;;;;;5095039;28;20035;-81
2021/04/03 07:17:24;;;;;;;8.73;5.30;;;9.00;68.50;;;;;;5095052;28;20020;-79
2021/04/03 07:19:52;;;;;;;7.95;5.85;;;9.00;70.40;;;;;;5094282;28;20111;-80
2021/04/03 07:22:18;;;;;;;15.40;8.93;;;8.90;70.80;;;;;;5092954;28;20028;-79
2021/04/03 07:24:44;;;;;;;7.82;6.43;;;9.50;87.00;;;;;;5094759;28;20032;-82
2021/04/03 07:27:10;;;;;;;7.85;6.30;;;9.40;69.80;;;;;;5093242;28;20024;-80
2021/04/03 07:29:39;;;;;;;7.15;5.70;;;9.10;73.70;;;;;;5093754;28;20021;-81
2021/04/03 07:32:05;;;;;;;7.72;6.40;;;8.90;74.80;;;;;;5093382;28;20112;-80
2021/04/03 07:34:41;;;;;;;8.23;6.20;;;8.70;73.40;;;;;;5093222;28;20036;-80
2021/04/03 07:37:11;;;;;;;8.32;6.90;;;8.60;74.80;;;;;;5093088;28;20020;-78
2021/04/03 07:39:39;;;;;;;73.57;59.47;;;8.60;74.30;;;;;;5093488;28;20028;-79
2021/04/03 07:42:06;;;;;;;8.85;7.20;;;8.70;75.80;;;;;;5093406;28;20020;-80
2021/04/03 07:44:37;;;;;;;9.73;8.70;;;8.80;73.00;;;;;;5093634;28;20012;-80
2021/04/03 07:47:20;;;;;;;11.55;10.43;;;8.80;72.20;;;;;;5093618;28;20382;-82
2021/04/03 07:49:46;;;;;;;19.10;13.40;;;8.80;72.90;;;;;;5093635;28;20027;-82
2021/04/03 07:52:12;;;;;;;9.52;6.78;;;8.80;71.60;;;;;;5093551;28;20048;-80
2021/04/03 07:54:39;;;;;;;11.30;6.80;;;8.90;72.20;;;;;;5093271;28;20040;-80
2021/04/03 07:57:07;;;;;;;18.50;15.82;;;9.40;71.80;;;;;;5092646;28;20020;-79
2021/04/03 07:59:47;;;;;;;11.93;8.65;;;9.40;65.10;;;;;;5092647;28;20030;-78
2021/04/03 08:02:14;;;;;;;5.65;3.85;;;9.90;67.00;;;;;;5092483;28;20056;-79
2021/04/03 08:04:41;;;;;;;6.68;4.05;;;10.00;57.60;;;;;;5092464;28;20031;-79
2021/04/03 08:07:06;;;;;;;8.30;3.55;;;10.10;53.80;;;;;;5092581;28;20513;-80
2021/04/03 08:09:33;;;;;;;4.28;2.45;;;10.20;56.10;;;;;;5093120;28;20036;-80
2021/04/03 08:12:00;;;;;;;6.22;4.20;;;10.40;51.70;;;;;;5092592;28;20419;-79
2021/04/03 08:14:28;;;;;;;4.57;2.35;;;10.40;50.10;;;;;;5093987;28;20028;-79
2021/04/03 08:16:54;;;;;;;8.63;7.20;;;10.60;50.40;;;;;;5093258;28;20050;-84
2021/04/03 08:19:29;;;;;;;2.42;1.90;;;10.50;46.60;;;;;;5094051;28;20479;-82
2021/04/03 08:21:55;;;;;;;3.70;2.60;;;10.40;46.10;;;;;;5094079;28;20073;-81
2021/04/03 08:24:23;;;;;;;4.18;2.13;;;10.40;47.60;;;;;;5095278;28;20067;-85
2021/04/03 08:26:49;;;;;;;4.53;2.10;;;10.30;47.40;;;;;;5094182;28;20379;-83
2021/04/03 08:29:31;;;;;;;7.43;5.65;;;10.40;47.60;;;;;;5094791;28;20020;-82
2021/04/03 08:31:58;;;;;;;8.05;4.70;;;10.40;45.00;;;;;;5092986;28;20032;-84
2021/04/03 08:34:25;;;;;;;3.33;2.50;;;10.20;47.20;;;;;;5093361;28;20064;-82
2021/04/03 08:36:51;;;;;;;3.08;2.03;;;10.30;46.00;;;;;;5093925;28;20020;-82
2021/04/03 08:39:20;;;;;;;3.28;2.05;;;10.20;44.60;;;;;;5091864;28;20020;-82
2021/04/03 08:41:48;;;;;;;17.30;8.60;;;10.30;44.60;;;;;;5091627;28;20541;-78
2021/04/03 08:44:27;;;;;;;3.53;2.22;;;10.40;45.30;;;;;;5092345;28;20028;-78
2021/04/03 08:47:02;;;;;;;3.15;1.80;;;10.40;46.20;;;;;;5091397;28;20028;-81
2021/04/03 08:49:34;;;;;;;3.00;1.83;;;10.20;47.00;;;;;;5092088;28;20016;-78
2021/04/03 08:52:00;;;;;;;3.67;2.10;;;10.10;45.40;;;;;;5090743;28;20131;-79
2021/04/03 08:54:34;;;;;;;4.40;1.67;;;10.10;43.50;;;;;;5091099;28;20090;-80
2021/04/03 08:57:00;;;;;;;2.30;1.30;;;9.90;43.90;;;;;;5090673;28;20020;-79
2021/04/03 08:59:26;;;;;;;4.50;2.00;;;10.10;44.60;;;;;;5092429;28;20021;-78
2021/04/03 09:01:54;;;;;;;3.40;1.67;;;10.30;45.10;;;;;;5092307;28;20076;-76
2021/04/03 09:04:21;;;;;;;2.60;1.48;;;10.40;43.40;;;;;;5092373;28;20024;-77
2021/04/03 09:06:57;;;;;;;1.95;1.42;;;10.40;42.70;;;;;;5092171;28;20081;-75
2021/04/03 09:09:24;;;;;;;3.80;1.65;;;10.60;44.30;;;;;;5092277;28;20016;-77
2021/04/03 09:11:54;;;;;;;2.58;1.80;;;10.70;42.20;;;;;;5092196;28;20032;-78
2021/04/03 09:14:40;;;;;;;5.63;1.45;;;10.80;43.50;;;;;;5092307;28;20044;-78
2021/04/03 09:17:18;;;;;;;2.53;1.60;;;11.00;43.90;;;;;;5091094;28;20035;-78
2021/04/03 09:19:44;;;;;;;2.95;1.60;;;11.00;42.10;;;;;;5090952;28;20027;-78
2021/04/03 09:22:21;;;;;;;3.95;1.58;;;10.80;43.00;;;;;;5092251;28;20103;-78
2021/04/03 09:24:56;;;;;;;1.95;1.35;;;10.50;42.70;;;;;;5091050;28;20020;-78
2021/04/03 09:27:22;;;;;;;2.38;1.80;;;10.60;43.40;;;;;;5090636;28;20039;-77
2021/04/03 09:29:54;;;;;;;2.67;1.40;;;10.70;42.70;;;;;;5091861;28;20111;-75
2021/04/03 09:32:19;;;;;;;3.28;1.50;;;10.90;43.00;;;;;;5092213;28;20528;-74
2021/04/03 09:34:45;;;;;;;1.60;1.30;;;11.00;42.70;;;;;;5090732;28;20032;-75
2021/04/03 09:37:11;;;;;;;2.50;1.77;;;11.00;42.00;;;;;;5092007;28;20028;-76
2021/04/03 09:40:03;;;;;;;2.08;1.17;;;10.80;41.00;;;;;;5091781;28;20032;-79
2021/04/03 09:42:29;;;;;;;3.63;1.38;;;10.80;41.30;;;;;;5074237;28;20498;-79
2021/04/03 09:44:57;;;;;;;2.15;1.50;;;10.80;42.30;;;;;;5091412;28;20170;-76
2021/04/03 09:47:25;;;;;;;9.10;2.70;;;10.90;42.10;;;;;;5090977;28;20036;-76
2021/04/03 09:49:51;;;;;;;3.47;1.48;;;11.20;52.80;;;;;;5090082;28;20020;-79
2021/04/03 09:52:18;;;;;;;1.80;1.48;;;11.50;41.90;;;;;;5093978;28;20526;-77
2021/04/03 09:54:45;;;;;;;1.70;1.25;;;11.40;40.90;;;;;;5095776;28;20429;-79
2021/04/03 09:57:12;;;;;;;1.95;1.13;;;11.30;40.80;;;;;;5094486;28;20043;-79
2021/04/03 09:59:39;;;;;;;4.07;1.10;;;11.40;42.50;;;;;;5095522;28;20082;-80
2021/04/03 10:02:06;;;;;;;1.48;1.13;;;11.20;41.60;;;;;;5095716;28;20122;-80
2021/04/03 10:04:32;;;;;;;1.85;1.02;;;10.90;39.80;;;;;;5095770;28;20118;-78
2021/04/03 10:06:58;;;;;;;3.05;1.10;;;10.70;41.80;;;;;;5095579;28;20122;-79
2021/04/03 10:09:24;;;;;;;2.67;0.98;;;10.70;42.00;;;;;;5094093;28;20028;-80
2021/04/03 10:11:52;;;;;;;1.75;1.23;;;10.90;42.80;;;;;;5094964;28;20024;-79
2021/04/03 10:14:18;;;;;;;1.63;1.30;;;11.10;41.90;;;;;;5096403;28;20035;-77
2021/04/03 10:16:44;;;;;;;2.92;1.92;;;11.00;43.50;;;;;;5095948;28;20032;-77
2021/04/03 10:19:10;;;;;;;2.20;1.92;;;11.10;43.90;;;;;;5095394;28;20344;-76
2021/04/03 10:21:36;;;;;;;2.10;1.15;;;11.10;43.80;;;;;;5096602;28;20024;-78
2021/04/03 10:24:02;;;;;;;3.22;1.85;;;11.20;43.30;;;;;;5097292;28;20471;-79
2021/04/03 10:26:28;;;;;;;9.88;6.88;;;11.50;44.50;;;;;;5095739;28;20032;-77
2021/04/03 10:28:54;;;;;;;6.55;5.95;;;11.70;43.40;;;;;;5097122;28;20032;-76
2021/04/03 10:31:20;;;;;;;5.38;1.20;;;11.70;41.60;;;;;;5098315;28;20043;-80
2021/04/03 10:33:46;;;;;;;8.00;5.53;;;11.60;41.20;;;;;;5095637;28;20079;-76
2021/04/03 10:36:12;;;;;;;6.68;5.35;;;11.60;41.40;;;;;;5095463;28;20016;-80
2021/04/03 10:38:38;;;;;;;7.47;2.03;;;11.70;40.10;;;;;;5094150;28;20077;-81
2021/04/03 10:41:05;;;;;;;3.10;2.38;;;11.60;39.70;;;;;;5093869;28;20032;-78
2021/04/03 10:43:31;;;;;;;4.47;4.05;;;11.70;39.10;;;;;;5093993;28;20024;-81
2021/04/03 10:45:57;;;;;;;1.25;1.10;;;11.90;40.30;;;;;;5095149;28;20431;-81
2021/04/03 10:48:23;;;;;;;2.00;1.20;;;11.90;40.30;;;;;;5095297;28;20095;-80
2021/04/03 10:50:49;;;;;;;2.40;1.00;;;11.90;39.50;;;;;;5095316;28;20490;-80
2021/04/03 10:53:15;;;;;;;0.98;0.77;;;12.00;38.50;;;;;;5094875;28;20090;-79
2021/04/03 10:55:41;;;;;;;1.48;0.95;;;12.00;38.40;;;;;;5093748;28;20048;-76
2021/04/03 10:58:07;;;;;;;1.33;0.80;;;11.90;38.70;;;;;;5093815;28;20031;-79
2021/04/03 11:00:33;;;;;;;1.10;0.50;;;11.60;38.20;;;;;;5095208;28;20379;-77
2021/04/03 11:02:59;;;;;;;1.08;0.63;;;11.60;38.80;;;;;;5094586;28;20387;-79
2021/04/03 11:05:25;;;;;;;1.38;1.00;;;11.70;38.80;;;;;;5093724;28;20031;-79
2021/04/03 11:07:51;;;;;;;1.10;0.70;;;11.90;39.80;;;;;;5093426;28;20027;-79
2021/04/03 11:10:17;;;;;;;0.90;0.52;;;12.10;39.70;;;;;;5093542;28;20020;-79
2021/04/03 11:12:43;;;;;;;1.33;0.68;;;12.10;38.70;;;;;;5093797;28;20100;-81
2021/04/03 11:15:10;;;;;;;0.43;0.30;;;12.20;38.30;;;;;;5093051;28;20029;-81
2021/04/03 11:17:36;;;;;;;2.50;0.50;;;12.40;39.50;;;;;;5094876;28;20062;-79
2021/04/03 11:20:06;;;;;;;0.80;0.60;;;12.00;38.70;;;;;;5094684;28;20109;-80
2021/04/03 11:22:32;;;;;;;0.90;0.63;;;11.90;41.00;;;;;;5093380;28;20390;-78
2021/04/03 11:24:57;;;;;;;1.20;1.02;;;12.20;41.90;;;;;;5093362;28;20024;-81
2021/04/03 11:27:23;;;;;;;0.68;0.50;;;11.90;43.00;;;;;;5094670;28;20524;-78
2021/04/03 11:29:49;;;;;;;1.83;1.73;;;11.40;42.80;;;;;;5094604;28;20038;-81
2021/04/03 11:32:15;;;;;;;2.65;2.45;;;11.20;43.60;;;;;;5093335;28;20036;-79
2021/04/03 11:34:41;;;;;;;4.32;3.92;;;11.20;44.00;;;;;;5093184;28;20093;-79
2021/04/03 11:37:07;;;;;;;6.88;3.72;;;11.20;42.90;;;;;;5094657;28;20099;-79
2021/04/03 11:39:32;;;;;;;5.78;4.70;;;11.00;43.30;;;;;;5094734;28;20050;-79
2021/04/03 11:41:58;;;;;;;9.25;5.30;;;11.20;42.70;;;;;;5094413;28;20020;-79
2021/04/03 11:44:25;;;;;;;0.77;0.55;;;11.30;41.50;;;;;;5092574;28;20031;-79
2021/04/03 11:46:51;;;;;;;1.48;0.20;;;11.60;41.30;;;;;;5093748;28;20020;-81
2021/04/03 11:49:17;;;;;;;2.40;0.70;;;11.70;39.30;;;;;;5094480;28;20020;-79
2021/04/03 11:51:43;;;;;;;1.08;0.40;;;11.70;40.10;;;;;;5092601;28;20051;-80
2021/04/03 11:54:09;;;;;;;0.77;0.55;;;11.70;40.10;;;;;;5092215;28;20063;-78
2021/04/03 11:56:35;;;;;;;1.63;1.02;;;11.70;40.90;;;;;;5093701;28;20080;-79
2021/04/03 11:59:01;;;;;;;1.00;0.60;;;11.70;40.30;;;;;;5092599;28;20165;-80
2021/04/03 12:01:27;;;;;;;2.67;1.38;;;11.70;40.50;;;;;;5092607;28;20020;-79
2021/04/03 12:03:53;;;;;;;0.47;0.30;;;12.00;41.80;;;;;;5092775;28;20031;-80
2021/04/03 12:06:20;;;;;;;0.57;0.38;;;12.00;39.10;;;;;;5092770;28;20099;-78
2021/04/03 12:08:45;;;;;;;1.73;0.90;;;11.90;40.10;;;;;;5092472;28;20128;-78
2021/04/03 12:11:11;;;;;;;4.45;3.25;;;11.80;40.20;;;;;;5093876;28;20483;-83
2021/04/03 12:13:37;;;;;;;5.00;2.72;;;11.60;39.70;;;;;;5094799;28;20071;-83
2021/04/03 12:16:02;;;;;;;6.18;4.90;;;11.40;38.20;;;;;;5093890;28;20371;-83
2021/04/03 12:18:28;;;;;;;1.85;1.23;;;11.10;38.60;;;;;;5094243;28;20027;-85
2021/04/03 12:20:55;;;;;;;2.50;0.75;;;11.30;40.10;;;;;;5094299;28;20020;-84
2021/04/03 12:23:21;;;;;;;4.25;1.10;;;11.50;36.60;;;;;;5094101;28;20028;-85
2021/04/03 12:25:47;;;;;;;0.70;0.47;;;11.70;37.70;;;;;;5094360;28;20024;-87
2021/04/03 12:28:13;;;;;;;0.93;0.30;;;11.70;38.20;;;;;;5094764;28;20136;-86
2021/04/03 12:30:38;;;;;;;0.30;0.10;;;11.60;39.10;;;;;;5094474;28;20502;-85
2021/04/03 12:33:04;;;;;;;5.20;4.15;;;11.10;41.30;;;;;;5094917;28;20122;-85
2021/04/03 12:35:30;;;;;;;0.90;0.43;;;10.80;44.90;;;;;;5095090;28;20032;-86
2021/04/03 12:37:56;;;;;;;1.52;0.60;;;11.10;45.40;;;;;;5094696;28;20024;-85
2021/04/03 12:40:22;;;;;;;0.60;0.32;;;11.40;46.80;;;;;;5095071;28;20020;-84
2021/04/03 12:42:48;;;;;;;8.18;0.75;;;11.50;49.20;;;;;;5094463;28;20386;-85
2021/04/03 12:45:14;;;;;;;1.35;0.55;;;11.50;48.00;;;;;;5094561;28;20028;-87
2021/04/03 12:47:39;;;;;;;0.60;0.30;;;11.70;48.40;;;;;;5094573;28;20119;-86